LFKJ/AJA METAR and TAF weather

Enter ICAO airport designator
Station Type Date Time Source
LFKJ METAR 2021/07/30 08:00 UTC NOAA

LFKJ 300800Z AUTO 23005KT 190V260 CAVOK 28/16 Q1013 NOSIG


Station Type Date Time Source
LFKJ Decoded METAR 2021/07/30 08:00 UTC NOAA

Ajaccio, France (LFKJ) 41-55N 008-48E 9M
Jul 30, 2021 - 04:00 AM EDT / 2021.07.30 0800 UTC
Wind: from the SW (230 degrees) at 6 MPH (5 KT) (direction variable):0
Visibility: greater than 7 mile(s):0
Temperature: 82 F (28 C)
Dew Point: 60 F (16 C)
Relative Humidity: 48%
Pressure (altimeter): 29.91 in. Hg (1013 hPa)
ob: LFKJ 300800Z AUTO 23005KT 190V260 CAVOK 28/16 Q1013 NOSIG
cycle: 8

Station Type Date Time Source
LFKJ TAF 2021/07/30 03:42 UTC NOAA

TAF LFKJ 300200Z 3003/3103 04004KT CAVOK
BECMG 3008/3009 21010KT
BECMG 3019/3021 05005KT

Example: see airport list